sensor_id;sensor_type;location;lat;lon;timestamp;P1;durP1;ratioP1;P2;durP2;ratioP2
7737;SDS011;29398;45.328;5.558;2023-12-20T00:00:41;24.45;;;19.60;;
7737;SDS011;29398;45.328;5.558;2023-12-20T00:01:42;25.15;;;19.35;;
7737;SDS011;29398;45.328;5.558;2023-12-20T00:02:43;24.67;;;19.33;;
7737;SDS011;29398;45.328;5.558;2023-12-20T00:03:47;25.50;;;17.73;;
7737;SDS011;29398;45.328;5.558;2023-12-20T00:04:48;22.05;;;18.30;;
7737;SDS011;29398;45.328;5.558;2023-12-20T00:05:50;23.88;;;17.73;;
7737;SDS011;29398;45.328;5.558;2023-12-20T00:06:53;19.63;;;16.40;;
7737;SDS011;29398;45.328;5.558;2023-12-20T00:07:55;19.13;;;16.25;;
7737;SDS011;29398;45.328;5.558;2023-12-20T00:08:56;19.55;;;15.95;;
7737;SDS011;29398;45.328;5.558;2023-12-20T00:09:59;17.80;;;15.85;;
7737;SDS011;29398;45.328;5.558;2023-12-20T00:11:00;17.77;;;15.38;;
7737;SDS011;29398;45.328;5.558;2023-12-20T00:12:01;18.80;;;15.35;;
7737;SDS011;29398;45.328;5.558;2023-12-20T00:13:03;17.70;;;14.98;;
7737;SDS011;29398;45.328;5.558;2023-12-20T00:14:04;17.58;;;15.70;;
7737;SDS011;29398;45.328;5.558;2023-12-20T00:15:06;18.00;;;15.05;;
7737;SDS011;29398;45.328;5.558;2023-12-20T00:16:09;19.92;;;15.63;;
7737;SDS011;29398;45.328;5.558;2023-12-20T00:17:11;17.90;;;15.32;;
7737;SDS011;29398;45.328;5.558;2023-12-20T00:18:12;18.95;;;16.20;;
7737;SDS011;29398;45.328;5.558;2023-12-20T00:19:14;19.20;;;15.57;;
7737;SDS011;29398;45.328;5.558;2023-12-20T00:20:15;20.58;;;17.02;;
7737;SDS011;29398;45.328;5.558;2023-12-20T00:21:17;23.17;;;19.55;;
7737;SDS011;29398;45.328;5.558;2023-12-20T00:22:20;22.45;;;17.85;;
7737;SDS011;29398;45.328;5.558;2023-12-20T00:23:22;24.65;;;19.23;;
7737;SDS011;29398;45.328;5.558;2023-12-20T00:24:24;23.15;;;18.95;;
7737;SDS011;29398;45.328;5.558;2023-12-20T00:25:26;21.48;;;17.55;;
7737;SDS011;29398;45.328;5.558;2023-12-20T00:26:27;21.65;;;17.40;;
7737;SDS011;29398;45.328;5.558;2023-12-20T00:27:29;20.83;;;17.92;;
7737;SDS011;29398;45.328;5.558;2023-12-20T00:28:30;19.85;;;16.88;;
7737;SDS011;29398;45.328;5.558;2023-12-20T00:29:32;21.08;;;16.77;;
7737;SDS011;29398;45.328;5.558;2023-12-20T00:30:34;20.17;;;17.08;;
7737;SDS011;29398;45.328;5.558;2023-12-20T00:31:35;21.48;;;18.40;;
7737;SDS011;29398;45.328;5.558;2023-12-20T00:32:37;21.50;;;17.83;;
7737;SDS011;29398;45.328;5.558;2023-12-20T00:33:38;21.50;;;17.48;;
7737;SDS011;29398;45.328;5.558;2023-12-20T00:34:43;19.67;;;17.23;;
7737;SDS011;29398;45.328;5.558;2023-12-20T00:35:44;21.13;;;18.08;;
7737;SDS011;29398;45.328;5.558;2023-12-20T00:36:46;19.83;;;16.58;;
7737;SDS011;29398;45.328;5.558;2023-12-20T00:37:49;21.70;;;17.60;;
7737;SDS011;29398;45.328;5.558;2023-12-20T00:38:50;19.52;;;16.65;;
7737;SDS011;29398;45.328;5.558;2023-12-20T00:39:53;19.45;;;16.20;;
7737;SDS011;29398;45.328;5.558;2023-12-20T00:40:54;19.67;;;16.60;;
7737;SDS011;29398;45.328;5.558;2023-12-20T00:41:56;20.15;;;16.45;;
7737;SDS011;29398;45.328;5.558;2023-12-20T00:42:57;18.48;;;16.52;;
7737;SDS011;29398;45.328;5.558;2023-12-20T00:43:59;17.55;;;15.32;;
7737;SDS011;29398;45.328;5.558;2023-12-20T00:45:00;19.55;;;16.55;;
7737;SDS011;29398;45.328;5.558;2023-12-20T00:46:02;18.67;;;15.80;;
7737;SDS011;29398;45.328;5.558;2023-12-20T00:47:04;18.60;;;15.38;;
7737;SDS011;29398;45.328;5.558;2023-12-20T00:48:06;18.70;;;15.73;;
7737;SDS011;29398;45.328;5.558;2023-12-20T00:49:08;17.92;;;15.18;;
7737;SDS011;29398;45.328;5.558;2023-12-20T00:50:09;15.82;;;13.82;;
7737;SDS011;29398;45.328;5.558;2023-12-20T00:51:11;16.50;;;14.15;;
7737;SDS011;29398;45.328;5.558;2023-12-20T00:52:12;15.32;;;13.18;;
7737;SDS011;29398;45.328;5.558;2023-12-20T00:53:16;14.63;;;12.77;;
7737;SDS011;29398;45.328;5.558;2023-12-20T00:54:17;15.38;;;13.00;;
7737;SDS011;29398;45.328;5.558;2023-12-20T00:55:19;14.13;;;12.48;;
7737;SDS011;29398;45.328;5.558;2023-12-20T00:56:20;13.63;;;11.95;;
7737;SDS011;29398;45.328;5.558;2023-12-20T00:57:22;15.18;;;12.73;;
7737;SDS011;29398;45.328;5.558;2023-12-20T00:58:23;14.90;;;12.32;;
7737;SDS011;29398;45.328;5.558;2023-12-20T00:59:26;12.13;;;10.82;;
7737;SDS011;29398;45.328;5.558;2023-12-20T01:00:28;12.85;;;10.80;;
7737;SDS011;29398;45.328;5.558;2023-12-20T01:01:30;13.93;;;12.32;;
7737;SDS011;29398;45.328;5.558;2023-12-20T01:02:33;13.70;;;12.05;;
7737;SDS011;29398;45.328;5.558;2023-12-20T01:03:35;13.13;;;11.70;;
7737;SDS011;29398;45.328;5.558;2023-12-20T01:04:36;13.95;;;12.25;;
7737;SDS011;29398;45.328;5.558;2023-12-20T01:05:37;15.82;;;12.05;;
7737;SDS011;29398;45.328;5.558;2023-12-20T01:06:39;14.40;;;12.23;;
7737;SDS011;29398;45.328;5.558;2023-12-20T01:07:40;13.73;;;11.52;;
7737;SDS011;29398;45.328;5.558;2023-12-20T01:08:44;14.45;;;12.43;;
7737;SDS011;29398;45.328;5.558;2023-12-20T01:09:45;12.50;;;11.20;;
7737;SDS011;29398;45.328;5.558;2023-12-20T01:10:47;13.88;;;12.00;;
7737;SDS011;29398;45.328;5.558;2023-12-20T01:11:49;13.07;;;10.63;;
7737;SDS011;29398;45.328;5.558;2023-12-20T01:12:51;13.23;;;11.18;;
7737;SDS011;29398;45.328;5.558;2023-12-20T01:13:52;14.18;;;11.68;;
7737;SDS011;29398;45.328;5.558;2023-12-20T01:14:53;13.32;;;10.77;;
7737;SDS011;29398;45.328;5.558;2023-12-20T01:15:55;14.82;;;12.52;;
7737;SDS011;29398;45.328;5.558;2023-12-20T01:16:56;15.15;;;13.40;;
7737;SDS011;29398;45.328;5.558;2023-12-20T01:17:58;15.43;;;13.57;;
7737;SDS011;29398;45.328;5.558;2023-12-20T01:18:59;15.63;;;14.00;;
7737;SDS011;29398;45.328;5.558;2023-12-20T01:20:02;19.10;;;16.88;;
7737;SDS011;29398;45.328;5.558;2023-12-20T01:21:03;18.15;;;16.20;;
7737;SDS011;29398;45.328;5.558;2023-12-20T01:22:05;18.95;;;16.83;;
7737;SDS011;29398;45.328;5.558;2023-12-20T01:23:06;23.73;;;19.35;;
7737;SDS011;29398;45.328;5.558;2023-12-20T01:24:09;23.83;;;19.23;;
7737;SDS011;29398;45.328;5.558;2023-12-20T01:25:11;21.83;;;18.67;;
7737;SDS011;29398;45.328;5.558;2023-12-20T01:26:12;22.38;;;18.85;;
7737;SDS011;29398;45.328;5.558;2023-12-20T01:27:17;21.77;;;18.50;;
7737;SDS011;29398;45.328;5.558;2023-12-20T01:28:18;23.63;;;18.77;;
7737;SDS011;29398;45.328;5.558;2023-12-20T01:29:20;23.08;;;19.08;;
7737;SDS011;29398;45.328;5.558;2023-12-20T01:30:21;20.65;;;17.65;;
7737;SDS011;29398;45.328;5.558;2023-12-20T01:31:23;22.73;;;18.27;;
7737;SDS011;29398;45.328;5.558;2023-12-20T01:32:24;22.13;;;17.60;;
7737;SDS011;29398;45.328;5.558;2023-12-20T01:33:26;19.67;;;17.25;;
7737;SDS011;29398;45.328;5.558;2023-12-20T01:34:28;21.90;;;17.38;;
7737;SDS011;29398;45.328;5.558;2023-12-20T01:35:29;20.88;;;17.67;;
7737;SDS011;29398;45.328;5.558;2023-12-20T01:36:31;23.05;;;18.70;;
7737;SDS011;29398;45.328;5.558;2023-12-20T01:37:32;19.52;;;16.40;;
7737;SDS011;29398;45.328;5.558;2023-12-20T01:38:33;19.20;;;16.48;;
7737;SDS011;29398;45.328;5.558;2023-12-20T01:39:37;17.50;;;15.43;;
7737;SDS011;29398;45.328;5.558;2023-12-20T01:40:38;20.02;;;17.20;;
7737;SDS011;29398;45.328;5.558;2023-12-20T01:41:39;18.15;;;14.93;;
7737;SDS011;29398;45.328;5.558;2023-12-20T01:42:41;17.08;;;14.57;;
7737;SDS011;29398;45.328;5.558;2023-12-20T01:43:43;17.92;;;15.50;;
7737;SDS011;29398;45.328;5.558;2023-12-20T01:44:45;17.17;;;14.77;;
7737;SDS011;29398;45.328;5.558;2023-12-20T01:45:46;15.85;;;14.18;;
7737;SDS011;29398;45.328;5.558;2023-12-20T01:46:48;17.25;;;14.00;;
7737;SDS011;29398;45.328;5.558;2023-12-20T01:47:49;17.40;;;14.85;;
7737;SDS011;29398;45.328;5.558;2023-12-20T01:48:51;19.65;;;13.90;;
7737;SDS011;29398;45.328;5.558;2023-12-20T01:49:53;18.23;;;15.80;;
7737;SDS011;29398;45.328;5.558;2023-12-20T01:50:57;15.13;;;13.13;;
7737;SDS011;29398;45.328;5.558;2023-12-20T01:51:59;16.85;;;14.30;;
7737;SDS011;29398;45.328;5.558;2023-12-20T01:53:00;17.83;;;14.30;;
7737;SDS011;29398;45.328;5.558;2023-12-20T01:54:03;14.63;;;12.98;;
7737;SDS011;29398;45.328;5.558;2023-12-20T01:55:07;17.00;;;14.35;;
7737;SDS011;29398;45.328;5.558;2023-12-20T01:56:13;16.33;;;13.93;;
7737;SDS011;29398;45.328;5.558;2023-12-20T01:57:15;17.30;;;13.88;;
7737;SDS011;29398;45.328;5.558;2023-12-20T01:58:17;16.10;;;13.90;;
7737;SDS011;29398;45.328;5.558;2023-12-20T01:59:20;16.58;;;13.32;;
7737;SDS011;29398;45.328;5.558;2023-12-20T02:00:22;18.13;;;13.63;;
7737;SDS011;29398;45.328;5.558;2023-12-20T02:01:26;14.00;;;12.50;;
7737;SDS011;29398;45.328;5.558;2023-12-20T02:02:29;15.05;;;13.07;;
7737;SDS011;29398;45.328;5.558;2023-12-20T02:03:31;14.10;;;12.60;;
7737;SDS011;29398;45.328;5.558;2023-12-20T02:04:33;15.40;;;13.60;;
7737;SDS011;29398;45.328;5.558;2023-12-20T02:05:35;16.02;;;12.90;;
7737;SDS011;29398;45.328;5.558;2023-12-20T02:06:36;16.42;;;13.32;;
7737;SDS011;29398;45.328;5.558;2023-12-20T02:07:41;15.95;;;14.05;;
7737;SDS011;29398;45.328;5.558;2023-12-20T02:08:42;15.95;;;13.40;;
7737;SDS011;29398;45.328;5.558;2023-12-20T02:09:44;16.77;;;13.50;;
7737;SDS011;29398;45.328;5.558;2023-12-20T02:10:47;18.55;;;13.85;;
7737;SDS011;29398;45.328;5.558;2023-12-20T02:11:49;16.75;;;14.63;;
7737;SDS011;29398;45.328;5.558;2023-12-20T02:12:50;18.65;;;15.07;;
7737;SDS011;29398;45.328;5.558;2023-12-20T02:13:53;18.50;;;15.40;;
7737;SDS011;29398;45.328;5.558;2023-12-20T02:14:54;22.55;;;16.88;;
7737;SDS011;29398;45.328;5.558;2023-12-20T02:15:56;23.30;;;17.63;;
7737;SDS011;29398;45.328;5.558;2023-12-20T02:16:57;22.92;;;17.25;;
7737;SDS011;29398;45.328;5.558;2023-12-20T02:17:59;24.70;;;18.45;;
7737;SDS011;29398;45.328;5.558;2023-12-20T02:19:01;22.60;;;16.88;;
7737;SDS011;29398;45.328;5.558;2023-12-20T02:20:04;21.35;;;16.58;;
7737;SDS011;29398;45.328;5.558;2023-12-20T02:21:07;21.05;;;16.88;;
7737;SDS011;29398;45.328;5.558;2023-12-20T02:22:11;19.65;;;15.23;;
7737;SDS011;29398;45.328;5.558;2023-12-20T02:23:14;18.02;;;15.65;;
7737;SDS011;29398;45.328;5.558;2023-12-20T02:24:15;18.20;;;14.90;;
7737;SDS011;29398;45.328;5.558;2023-12-20T02:25:17;19.50;;;16.15;;
7737;SDS011;29398;45.328;5.558;2023-12-20T02:26:19;17.33;;;14.80;;
7737;SDS011;29398;45.328;5.558;2023-12-20T02:27:21;16.88;;;14.25;;
7737;SDS011;29398;45.328;5.558;2023-12-20T02:28:23;18.80;;;15.20;;
7737;SDS011;29398;45.328;5.558;2023-12-20T02:29:25;17.20;;;14.02;;
7737;SDS011;29398;45.328;5.558;2023-12-20T02:30:27;17.35;;;14.68;;
7737;SDS011;29398;45.328;5.558;2023-12-20T02:31:29;16.85;;;14.40;;
7737;SDS011;29398;45.328;5.558;2023-12-20T02:32:30;18.25;;;14.57;;
7737;SDS011;29398;45.328;5.558;2023-12-20T02:33:32;16.73;;;14.32;;
7737;SDS011;29398;45.328;5.558;2023-12-20T02:34:33;16.20;;;14.15;;
7737;SDS011;29398;45.328;5.558;2023-12-20T02:35:35;17.13;;;14.25;;
7737;SDS011;29398;45.328;5.558;2023-12-20T02:36:36;17.00;;;13.88;;
7737;SDS011;29398;45.328;5.558;2023-12-20T02:37:40;18.58;;;14.93;;
7737;SDS011;29398;45.328;5.558;2023-12-20T02:38:41;17.75;;;14.65;;
7737;SDS011;29398;45.328;5.558;2023-12-20T02:39:43;17.65;;;14.35;;
7737;SDS011;29398;45.328;5.558;2023-12-20T02:40:44;17.67;;;14.63;;
7737;SDS011;29398;45.328;5.558;2023-12-20T02:41:46;16.55;;;14.43;;
7737;SDS011;29398;45.328;5.558;2023-12-20T02:42:48;16.52;;;13.85;;
7737;SDS011;29398;45.328;5.558;2023-12-20T02:43:50;16.42;;;13.88;;
7737;SDS011;29398;45.328;5.558;2023-12-20T02:44:51;15.57;;;13.43;;
7737;SDS011;29398;45.328;5.558;2023-12-20T02:45:53;17.20;;;14.18;;
7737;SDS011;29398;45.328;5.558;2023-12-20T02:46:54;15.13;;;13.52;;
7737;SDS011;29398;45.328;5.558;2023-12-20T02:47:56;15.45;;;13.75;;
7737;SDS011;29398;45.328;5.558;2023-12-20T02:48:57;14.80;;;13.23;;
7737;SDS011;29398;45.328;5.558;2023-12-20T02:49:58;15.30;;;13.68;;
7737;SDS011;29398;45.328;5.558;2023-12-20T02:51:00;16.02;;;12.60;;
7737;SDS011;29398;45.328;5.558;2023-12-20T02:52:01;16.45;;;13.45;;
7737;SDS011;29398;45.328;5.558;2023-12-20T02:53:05;16.00;;;13.00;;
7737;SDS011;29398;45.328;5.558;2023-12-20T02:54:06;14.43;;;12.45;;
7737;SDS011;29398;45.328;5.558;2023-12-20T02:55:07;15.73;;;13.45;;
7737;SDS011;29398;45.328;5.558;2023-12-20T02:56:10;15.80;;;12.32;;
7737;SDS011;29398;45.328;5.558;2023-12-20T02:57:11;14.82;;;12.95;;
7737;SDS011;29398;45.328;5.558;2023-12-20T02:58:13;14.48;;;12.98;;
7737;SDS011;29398;45.328;5.558;2023-12-20T02:59:14;14.45;;;12.52;;
7737;SDS011;29398;45.328;5.558;2023-12-20T03:00:17;14.57;;;12.95;;
7737;SDS011;29398;45.328;5.558;2023-12-20T03:01:18;16.70;;;13.73;;
7737;SDS011;29398;45.328;5.558;2023-12-20T03:02:20;15.00;;;12.07;;
7737;SDS011;29398;45.328;5.558;2023-12-20T03:03:21;15.63;;;12.95;;
7737;SDS011;29398;45.328;5.558;2023-12-20T03:04:23;14.73;;;12.90;;
7737;SDS011;29398;45.328;5.558;2023-12-20T03:05:24;14.38;;;12.18;;
7737;SDS011;29398;45.328;5.558;2023-12-20T03:06:26;16.38;;;13.10;;
7737;SDS011;29398;45.328;5.558;2023-12-20T03:07:28;14.82;;;13.23;;
7737;SDS011;29398;45.328;5.558;2023-12-20T03:08:31;15.25;;;13.45;;
7737;SDS011;29398;45.328;5.558;2023-12-20T03:09:32;15.50;;;13.50;;
7737;SDS011;29398;45.328;5.558;2023-12-20T03:10:34;15.38;;;13.52;;
7737;SDS011;29398;45.328;5.558;2023-12-20T03:11:35;16.75;;;14.27;;
7737;SDS011;29398;45.328;5.558;2023-12-20T03:12:38;16.73;;;14.35;;
7737;SDS011;29398;45.328;5.558;2023-12-20T03:13:39;17.88;;;14.45;;
7737;SDS011;29398;45.328;5.558;2023-12-20T03:14:41;15.93;;;13.65;;
7737;SDS011;29398;45.328;5.558;2023-12-20T03:15:43;16.25;;;14.43;;
7737;SDS011;29398;45.328;5.558;2023-12-20T03:16:46;16.48;;;14.02;;
7737;SDS011;29398;45.328;5.558;2023-12-20T03:17:47;15.75;;;14.07;;
7737;SDS011;29398;45.328;5.558;2023-12-20T03:18:49;18.17;;;14.55;;
7737;SDS011;29398;45.328;5.558;2023-12-20T03:19:51;17.02;;;15.20;;
7737;SDS011;29398;45.328;5.558;2023-12-20T03:20:53;16.70;;;14.85;;
7737;SDS011;29398;45.328;5.558;2023-12-20T03:21:54;15.48;;;13.80;;
7737;SDS011;29398;45.328;5.558;2023-12-20T03:22:56;19.38;;;16.42;;
7737;SDS011;29398;45.328;5.558;2023-12-20T03:23:58;16.85;;;13.95;;
7737;SDS011;29398;45.328;5.558;2023-12-20T03:25:00;16.67;;;14.63;;
7737;SDS011;29398;45.328;5.558;2023-12-20T03:26:01;16.52;;;13.82;;
7737;SDS011;29398;45.328;5.558;2023-12-20T03:27:04;16.40;;;13.77;;
7737;SDS011;29398;45.328;5.558;2023-12-20T03:28:05;16.02;;;14.32;;
7737;SDS011;29398;45.328;5.558;2023-12-20T03:29:07;15.18;;;13.57;;
7737;SDS011;29398;45.328;5.558;2023-12-20T03:30:09;17.02;;;14.45;;
7737;SDS011;29398;45.328;5.558;2023-12-20T03:31:10;16.95;;;13.68;;
7737;SDS011;29398;45.328;5.558;2023-12-20T03:32:12;16.70;;;13.75;;
7737;SDS011;29398;45.328;5.558;2023-12-20T03:33:13;15.80;;;13.63;;
7737;SDS011;29398;45.328;5.558;2023-12-20T03:34:16;14.98;;;12.75;;
7737;SDS011;29398;45.328;5.558;2023-12-20T03:35:17;14.43;;;12.48;;
7737;SDS011;29398;45.328;5.558;2023-12-20T03:36:19;16.05;;;13.48;;
7737;SDS011;29398;45.328;5.558;2023-12-20T03:37:21;14.88;;;13.30;;
7737;SDS011;29398;45.328;5.558;2023-12-20T03:38:23;14.65;;;12.63;;
7737;SDS011;29398;45.328;5.558;2023-12-20T03:39:26;14.10;;;12.65;;
7737;SDS011;29398;45.328;5.558;2023-12-20T03:40:46;16.25;;;12.65;;
7737;SDS011;29398;45.328;5.558;2023-12-20T03:41:47;14.40;;;12.02;;
7737;SDS011;29398;45.328;5.558;2023-12-20T03:42:49;14.07;;;12.38;;
7737;SDS011;29398;45.328;5.558;2023-12-20T03:43:50;16.02;;;12.60;;
7737;SDS011;29398;45.328;5.558;2023-12-20T03:44:52;14.57;;;11.93;;
7737;SDS011;29398;45.328;5.558;2023-12-20T03:45:53;13.75;;;12.32;;
7737;SDS011;29398;45.328;5.558;2023-12-20T03:46:55;13.45;;;12.02;;
7737;SDS011;29398;45.328;5.558;2023-12-20T03:47:57;13.40;;;11.82;;
7737;SDS011;29398;45.328;5.558;2023-12-20T03:48:59;13.73;;;11.68;;
7737;SDS011;29398;45.328;5.558;2023-12-20T03:50:00;13.45;;;11.85;;
7737;SDS011;29398;45.328;5.558;2023-12-20T03:51:02;15.40;;;12.75;;
7737;SDS011;29398;45.328;5.558;2023-12-20T03:52:03;14.30;;;11.45;;
7737;SDS011;29398;45.328;5.558;2023-12-20T03:53:06;12.80;;;11.50;;
7737;SDS011;29398;45.328;5.558;2023-12-20T03:54:07;13.85;;;12.18;;
7737;SDS011;29398;45.328;5.558;2023-12-20T03:55:10;14.73;;;12.60;;
7737;SDS011;29398;45.328;5.558;2023-12-20T03:56:11;13.65;;;11.45;;
7737;SDS011;29398;45.328;5.558;2023-12-20T03:57:13;14.02;;;12.10;;
7737;SDS011;29398;45.328;5.558;2023-12-20T03:58:15;12.82;;;11.30;;
7737;SDS011;29398;45.328;5.558;2023-12-20T03:59:17;15.38;;;12.13;;
7737;SDS011;29398;45.328;5.558;2023-12-20T04:00:19;17.33;;;13.75;;
7737;SDS011;29398;45.328;5.558;2023-12-20T04:01:21;15.50;;;13.57;;
7737;SDS011;29398;45.328;5.558;2023-12-20T04:02:22;15.93;;;14.27;;
7737;SDS011;29398;45.328;5.558;2023-12-20T04:03:24;18.23;;;15.00;;
7737;SDS011;29398;45.328;5.558;2023-12-20T04:04:26;17.58;;;15.05;;
7737;SDS011;29398;45.328;5.558;2023-12-20T04:05:28;16.65;;;14.23;;
7737;SDS011;29398;45.328;5.558;2023-12-20T04:06:29;17.25;;;15.18;;
7737;SDS011;29398;45.328;5.558;2023-12-20T04:07:31;18.92;;;16.08;;
7737;SDS011;29398;45.328;5.558;2023-12-20T04:08:32;17.40;;;15.60;;
7737;SDS011;29398;45.328;5.558;2023-12-20T04:09:34;18.10;;;16.17;;
7737;SDS011;29398;45.328;5.558;2023-12-20T04:10:37;18.65;;;16.65;;
7737;SDS011;29398;45.328;5.558;2023-12-20T04:11:38;16.77;;;15.07;;
7737;SDS011;29398;45.328;5.558;2023-12-20T04:13:59;15.95;;;14.00;;
7737;SDS011;29398;45.328;5.558;2023-12-20T04:15:02;18.35;;;15.80;;
7737;SDS011;29398;45.328;5.558;2023-12-20T04:16:09;15.15;;;13.55;;
7737;SDS011;29398;45.328;5.558;2023-12-20T04:17:11;15.55;;;13.98;;
7737;SDS011;29398;45.328;5.558;2023-12-20T04:18:12;18.50;;;16.05;;
7737;SDS011;29398;45.328;5.558;2023-12-20T04:19:14;17.30;;;15.48;;
7737;SDS011;29398;45.328;5.558;2023-12-20T04:20:15;16.88;;;14.60;;
7737;SDS011;29398;45.328;5.558;2023-12-20T04:21:17;17.20;;;15.40;;
7737;SDS011;29398;45.328;5.558;2023-12-20T04:22:19;18.17;;;16.27;;
7737;SDS011;29398;45.328;5.558;2023-12-20T04:23:20;18.17;;;16.27;;
7737;SDS011;29398;45.328;5.558;2023-12-20T04:24:22;18.08;;;16.17;;
7737;SDS011;29398;45.328;5.558;2023-12-20T04:25:23;16.80;;;15.10;;
7737;SDS011;29398;45.328;5.558;2023-12-20T04:26:27;17.17;;;15.30;;
7737;SDS011;29398;45.328;5.558;2023-12-20T04:27:28;19.30;;;16.45;;
7737;SDS011;29398;45.328;5.558;2023-12-20T04:28:30;18.25;;;16.35;;
7737;SDS011;29398;45.328;5.558;2023-12-20T04:29:31;19.40;;;16.23;;
7737;SDS011;29398;45.328;5.558;2023-12-20T04:30:33;16.25;;;14.52;;
7737;SDS011;29398;45.328;5.558;2023-12-20T04:31:34;17.70;;;15.80;;
7737;SDS011;29398;45.328;5.558;2023-12-20T04:32:36;17.83;;;15.93;;
7737;SDS011;29398;45.328;5.558;2023-12-20T04:33:37;17.30;;;15.40;;
7737;SDS011;29398;45.328;5.558;2023-12-20T04:34:38;19.42;;;15.88;;
7737;SDS011;29398;45.328;5.558;2023-12-20T04:35:40;17.83;;;15.93;;
7737;SDS011;29398;45.328;5.558;2023-12-20T04:36:43;18.77;;;15.98;;
7737;SDS011;29398;45.328;5.558;2023-12-20T04:37:45;19.70;;;16.00;;
7737;SDS011;29398;45.328;5.558;2023-12-20T04:39:06;20.02;;;17.33;;
7737;SDS011;29398;45.328;5.558;2023-12-20T04:40:08;19.60;;;17.42;;
7737;SDS011;29398;45.328;5.558;2023-12-20T04:41:09;20.50;;;18.30;;
7737;SDS011;29398;45.328;5.558;2023-12-20T04:42:17;19.95;;;17.85;;
7737;SDS011;29398;45.328;5.558;2023-12-20T04:43:18;18.40;;;16.42;;
7737;SDS011;29398;45.328;5.558;2023-12-20T04:44:20;19.73;;;17.63;;
7737;SDS011;29398;45.328;5.558;2023-12-20T04:45:21;19.52;;;17.30;;
7737;SDS011;29398;45.328;5.558;2023-12-20T04:46:25;21.98;;;17.38;;
7737;SDS011;29398;45.328;5.558;2023-12-20T04:47:26;20.60;;;18.45;;
7737;SDS011;29398;45.328;5.558;2023-12-20T04:48:28;20.38;;;17.75;;
7737;SDS011;29398;45.328;5.558;2023-12-20T04:49:29;19.58;;;16.70;;
7737;SDS011;29398;45.328;5.558;2023-12-20T04:50:31;19.08;;;16.98;;
7737;SDS011;29398;45.328;5.558;2023-12-20T04:51:32;19.08;;;16.40;;
7737;SDS011;29398;45.328;5.558;2023-12-20T04:52:35;18.73;;;16.23;;
7737;SDS011;29398;45.328;5.558;2023-12-20T04:53:36;19.55;;;15.85;;
7737;SDS011;29398;45.328;5.558;2023-12-20T04:54:37;19.02;;;16.73;;
7737;SDS011;29398;45.328;5.558;2023-12-20T04:55:39;18.23;;;15.98;;
7737;SDS011;29398;45.328;5.558;2023-12-20T04:56:40;18.63;;;16.33;;
7737;SDS011;29398;45.328;5.558;2023-12-20T04:57:44;18.90;;;17.00;;
7737;SDS011;29398;45.328;5.558;2023-12-20T04:59:04;18.35;;;16.40;;
7737;SDS011;29398;45.328;5.558;2023-12-20T05:00:06;21.83;;;16.85;;
7737;SDS011;29398;45.328;5.558;2023-12-20T05:01:08;18.63;;;15.95;;
7737;SDS011;29398;45.328;5.558;2023-12-20T05:02:11;17.73;;;15.88;;
7737;SDS011;29398;45.328;5.558;2023-12-20T05:03:13;17.58;;;15.77;;
7737;SDS011;29398;45.328;5.558;2023-12-20T05:04:15;17.75;;;15.90;;
7737;SDS011;29398;45.328;5.558;2023-12-20T05:05:16;18.17;;;16.27;;
7737;SDS011;29398;45.328;5.558;2023-12-20T05:06:19;19.15;;;15.68;;
7737;SDS011;29398;45.328;5.558;2023-12-20T05:07:20;18.52;;;16.60;;
7737;SDS011;29398;45.328;5.558;2023-12-20T05:08:22;17.98;;;15.90;;
7737;SDS011;29398;45.328;5.558;2023-12-20T05:09:23;18.45;;;16.50;;
7737;SDS011;29398;45.328;5.558;2023-12-20T05:10:25;20.92;;;16.38;;
7737;SDS011;29398;45.328;5.558;2023-12-20T05:11:27;19.60;;;16.27;;
7737;SDS011;29398;45.328;5.558;2023-12-20T05:12:28;18.23;;;16.35;;
7737;SDS011;29398;45.328;5.558;2023-12-20T05:13:31;19.05;;;16.92;;
7737;SDS011;29398;45.328;5.558;2023-12-20T05:14:32;16.92;;;15.27;;
7737;SDS011;29398;45.328;5.558;2023-12-20T05:15:35;18.95;;;16.40;;
7737;SDS011;29398;45.328;5.558;2023-12-20T05:16:36;18.73;;;16.73;;
7737;SDS011;29398;45.328;5.558;2023-12-20T05:17:38;17.92;;;16.13;;
7737;SDS011;29398;45.328;5.558;2023-12-20T05:18:39;17.95;;;16.10;;
7737;SDS011;29398;45.328;5.558;2023-12-20T05:19:41;18.10;;;16.20;;
7737;SDS011;29398;45.328;5.558;2023-12-20T05:20:42;18.23;;;16.33;;
7737;SDS011;29398;45.328;5.558;2023-12-20T05:21:44;19.35;;;16.30;;
7737;SDS011;29398;45.328;5.558;2023-12-20T05:22:45;17.55;;;15.43;;
7737;SDS011;29398;45.328;5.558;2023-12-20T05:23:47;18.42;;;15.93;;
7737;SDS011;29398;45.328;5.558;2023-12-20T05:24:49;18.42;;;15.55;;
7737;SDS011;29398;45.328;5.558;2023-12-20T05:25:51;19.08;;;16.73;;
7737;SDS011;29398;45.328;5.558;2023-12-20T05:26:52;17.77;;;15.88;;
7737;SDS011;29398;45.328;5.558;2023-12-20T05:27:54;16.38;;;14.68;;
7737;SDS011;29398;45.328;5.558;2023-12-20T05:28:57;18.08;;;16.00;;
7737;SDS011;29398;45.328;5.558;2023-12-20T05:29:59;18.20;;;16.08;;
7737;SDS011;29398;45.328;5.558;2023-12-20T05:31:00;19.83;;;17.73;;
7737;SDS011;29398;45.328;5.558;2023-12-20T05:32:03;19.75;;;17.65;;
7737;SDS011;29398;45.328;5.558;2023-12-20T05:33:05;22.02;;;19.60;;
7737;SDS011;29398;45.328;5.558;2023-12-20T05:34:06;19.27;;;17.23;;
7737;SDS011;29398;45.328;5.558;2023-12-20T05:35:08;18.88;;;16.90;;
7737;SDS011;29398;45.328;5.558;2023-12-20T05:36:09;19.75;;;17.65;;
7737;SDS011;29398;45.328;5.558;2023-12-20T05:37:14;19.80;;;16.95;;
7737;SDS011;29398;45.328;5.558;2023-12-20T05:38:15;19.80;;;17.70;;
7737;SDS011;29398;45.328;5.558;2023-12-20T05:39:17;19.48;;;17.48;;
7737;SDS011;29398;45.328;5.558;2023-12-20T05:40:18;19.73;;;17.15;;
7737;SDS011;29398;45.328;5.558;2023-12-20T05:41:20;21.25;;;17.58;;
7737;SDS011;29398;45.328;5.558;2023-12-20T05:42:22;20.45;;;18.25;;
7737;SDS011;29398;45.328;5.558;2023-12-20T05:43:24;18.92;;;16.77;;
7737;SDS011;29398;45.328;5.558;2023-12-20T05:44:26;19.92;;;17.92;;
7737;SDS011;29398;45.328;5.558;2023-12-20T05:45:28;18.92;;;17.02;;
7737;SDS011;29398;45.328;5.558;2023-12-20T05:46:29;21.02;;;18.80;;
7737;SDS011;29398;45.328;5.558;2023-12-20T05:47:32;19.08;;;17.08;;
7737;SDS011;29398;45.328;5.558;2023-12-20T05:48:33;21.63;;;18.65;;
7737;SDS011;29398;45.328;5.558;2023-12-20T05:49:34;20.75;;;18.48;;
7737;SDS011;29398;45.328;5.558;2023-12-20T05:50:36;19.65;;;17.55;;
7737;SDS011;29398;45.328;5.558;2023-12-20T05:51:37;19.63;;;17.52;;
7737;SDS011;29398;45.328;5.558;2023-12-20T05:52:39;20.75;;;18.55;;
7737;SDS011;29398;45.328;5.558;2023-12-20T05:53:41;21.50;;;19.20;;
7737;SDS011;29398;45.328;5.558;2023-12-20T05:54:44;20.83;;;18.55;;
7737;SDS011;29398;45.328;5.558;2023-12-20T05:55:45;21.60;;;18.92;;
7737;SDS011;29398;45.328;5.558;2023-12-20T05:56:46;21.23;;;18.95;;
7737;SDS011;29398;45.328;5.558;2023-12-20T05:57:48;21.33;;;19.13;;
7737;SDS011;29398;45.328;5.558;2023-12-20T05:58:50;21.30;;;19.08;;
7737;SDS011;29398;45.328;5.558;2023-12-20T05:59:53;21.98;;;19.40;;
7737;SDS011;29398;45.328;5.558;2023-12-20T06:00:54;23.92;;;20.63;;
7737;SDS011;29398;45.328;5.558;2023-12-20T06:01:56;21.25;;;18.83;;
7737;SDS011;29398;45.328;5.558;2023-12-20T06:02:57;22.40;;;20.02;;
7737;SDS011;29398;45.328;5.558;2023-12-20T06:03:59;21.73;;;19.42;;
7737;SDS011;29398;45.328;5.558;2023-12-20T06:05:00;22.15;;;19.83;;
7737;SDS011;29398;45.328;5.558;2023-12-20T06:06:05;24.02;;;21.20;;
7737;SDS011;29398;45.328;5.558;2023-12-20T06:07:06;26.17;;;21.60;;
7737;SDS011;29398;45.328;5.558;2023-12-20T06:08:09;26.55;;;21.55;;
7737;SDS011;29398;45.328;5.558;2023-12-20T06:09:10;28.05;;;21.15;;